sensor_id;sensor_type;location;lat;lon;timestamp;P1;durP1;ratioP1;P2;durP2;ratioP2
14472;SDS011;7322;50.872;4.386;2024-03-22T00:01:42;8.03;;;7.23;;
14472;SDS011;7322;50.872;4.386;2024-03-22T00:04:10;7.10;;;6.37;;
14472;SDS011;7322;50.872;4.386;2024-03-22T00:06:35;9.53;;;8.17;;
14472;SDS011;7322;50.872;4.386;2024-03-22T00:09:03;7.73;;;6.43;;
14472;SDS011;7322;50.872;4.386;2024-03-22T00:11:30;7.87;;;6.40;;
14472;SDS011;7322;50.872;4.386;2024-03-22T00:13:57;7.90;;;6.47;;
14472;SDS011;7322;50.872;4.386;2024-03-22T00:16:24;6.57;;;5.87;;
14472;SDS011;7322;50.872;4.386;2024-03-22T00:18:51;6.70;;;6.00;;
14472;SDS011;7322;50.872;4.386;2024-03-22T00:21:17;7.87;;;6.47;;
14472;SDS011;7322;50.872;4.386;2024-03-22T00:23:45;8.23;;;6.37;;
14472;SDS011;7322;50.872;4.386;2024-03-22T00:26:11;7.20;;;6.03;;
14472;SDS011;7322;50.872;4.386;2024-03-22T00:28:39;6.43;;;5.73;;
14472;SDS011;7322;50.872;4.386;2024-03-22T00:31:05;7.83;;;6.03;;
14472;SDS011;7322;50.872;4.386;2024-03-22T00:33:34;7.13;;;5.83;;
14472;SDS011;7322;50.872;4.386;2024-03-22T00:36:00;7.33;;;6.53;;
14472;SDS011;7322;50.872;4.386;2024-03-22T00:38:27;6.33;;;5.73;;
14472;SDS011;7322;50.872;4.386;2024-03-22T00:40:53;6.70;;;6.00;;
14472;SDS011;7322;50.872;4.386;2024-03-22T00:43:20;6.40;;;5.80;;
14472;SDS011;7322;50.872;4.386;2024-03-22T00:45:46;7.53;;;6.13;;
14472;SDS011;7322;50.872;4.386;2024-03-22T00:48:15;7.87;;;5.53;;
14472;SDS011;7322;50.872;4.386;2024-03-22T00:50:42;8.20;;;6.40;;
14472;SDS011;7322;50.872;4.386;2024-03-22T00:53:10;7.13;;;6.40;;
14472;SDS011;7322;50.872;4.386;2024-03-22T00:55:36;6.77;;;6.07;;
14472;SDS011;7322;50.872;4.386;2024-03-22T00:58:03;6.30;;;5.67;;
14472;SDS011;7322;50.872;4.386;2024-03-22T01:00:29;7.27;;;6.13;;
14472;SDS011;7322;50.872;4.386;2024-03-22T01:02:56;7.47;;;6.77;;
14472;SDS011;7322;50.872;4.386;2024-03-22T01:05:22;6.83;;;6.13;;
14472;SDS011;7322;50.872;4.386;2024-03-22T01:07:52;8.37;;;6.07;;
14472;SDS011;7322;50.872;4.386;2024-03-22T01:10:18;7.03;;;6.00;;
14472;SDS011;7322;50.872;4.386;2024-03-22T01:12:45;6.80;;;5.80;;
14472;SDS011;7322;50.872;4.386;2024-03-22T01:15:11;7.20;;;6.50;;
14472;SDS011;7322;50.872;4.386;2024-03-22T01:17:38;6.47;;;5.73;;
14472;SDS011;7322;50.872;4.386;2024-03-22T01:20:04;6.70;;;5.90;;
14472;SDS011;7322;50.872;4.386;2024-03-22T01:22:31;6.90;;;6.20;;
14472;SDS011;7322;50.872;4.386;2024-03-22T01:24:59;6.83;;;5.90;;
14472;SDS011;7322;50.872;4.386;2024-03-22T01:27:26;7.00;;;6.20;;
14472;SDS011;7322;50.872;4.386;2024-03-22T01:29:52;6.50;;;5.73;;
14472;SDS011;7322;50.872;4.386;2024-03-22T01:32:19;6.57;;;5.60;;
14472;SDS011;7322;50.872;4.386;2024-03-22T01:34:45;6.87;;;5.80;;
14472;SDS011;7322;50.872;4.386;2024-03-22T01:37:12;6.47;;;5.67;;
14472;SDS011;7322;50.872;4.386;2024-03-22T01:39:39;6.63;;;5.73;;
14472;SDS011;7322;50.872;4.386;2024-03-22T01:42:07;7.17;;;5.97;;
14472;SDS011;7322;50.872;4.386;2024-03-22T01:44:33;6.73;;;5.93;;
14472;SDS011;7322;50.872;4.386;2024-03-22T01:47:00;5.70;;;5.10;;
14472;SDS011;7322;50.872;4.386;2024-03-22T01:49:28;6.70;;;5.37;;
14472;SDS011;7322;50.872;4.386;2024-03-22T01:51:56;6.87;;;5.90;;
14472;SDS011;7322;50.872;4.386;2024-03-22T01:54:22;6.37;;;5.70;;
14472;SDS011;7322;50.872;4.386;2024-03-22T01:56:49;6.00;;;5.40;;
14472;SDS011;7322;50.872;4.386;2024-03-22T01:59:16;5.73;;;5.13;;
14472;SDS011;7322;50.872;4.386;2024-03-22T02:01:44;5.97;;;5.37;;
14472;SDS011;7322;50.872;4.386;2024-03-22T02:04:10;6.13;;;5.50;;
14472;SDS011;7322;50.872;4.386;2024-03-22T02:06:37;5.93;;;5.03;;
14472;SDS011;7322;50.872;4.386;2024-03-22T02:09:04;6.33;;;5.43;;
14472;SDS011;7322;50.872;4.386;2024-03-22T02:11:31;7.37;;;5.60;;
14472;SDS011;7322;50.872;4.386;2024-03-22T02:13:57;7.17;;;6.37;;
14472;SDS011;7322;50.872;4.386;2024-03-22T02:16:25;8.90;;;6.27;;
14472;SDS011;7322;50.872;4.386;2024-03-22T02:18:51;6.43;;;5.10;;
14472;SDS011;7322;50.872;4.386;2024-03-22T02:21:18;6.57;;;5.73;;
14472;SDS011;7322;50.872;4.386;2024-03-22T02:23:47;5.70;;;5.13;;
14472;SDS011;7322;50.872;4.386;2024-03-22T02:26:14;6.13;;;5.50;;
14472;SDS011;7322;50.872;4.386;2024-03-22T02:28:40;6.30;;;5.70;;
14472;SDS011;7322;50.872;4.386;2024-03-22T02:31:06;6.00;;;5.40;;
14472;SDS011;7322;50.872;4.386;2024-03-22T02:33:32;7.17;;;4.97;;
14472;SDS011;7322;50.872;4.386;2024-03-22T02:35:59;5.70;;;5.10;;
14472;SDS011;7322;50.872;4.386;2024-03-22T02:38:25;7.23;;;5.70;;
14472;SDS011;7322;50.872;4.386;2024-03-22T02:40:54;5.97;;;5.23;;
14472;SDS011;7322;50.872;4.386;2024-03-22T02:43:19;7.53;;;6.40;;
14472;SDS011;7322;50.872;4.386;2024-03-22T02:45:47;5.63;;;5.13;;
14472;SDS011;7322;50.872;4.386;2024-03-22T02:48:13;6.10;;;5.50;;
14472;SDS011;7322;50.872;4.386;2024-03-22T02:50:40;5.73;;;5.03;;
14472;SDS011;7322;50.872;4.386;2024-03-22T02:53:06;6.37;;;5.43;;
14472;SDS011;7322;50.872;4.386;2024-03-22T02:55:36;5.27;;;4.70;;
14472;SDS011;7322;50.872;4.386;2024-03-22T02:58:05;6.20;;;5.40;;
14472;SDS011;7322;50.872;4.386;2024-03-22T03:00:32;6.33;;;5.67;;
14472;SDS011;7322;50.872;4.386;2024-03-22T03:03:01;5.37;;;4.87;;
14472;SDS011;7322;50.872;4.386;2024-03-22T03:05:28;6.43;;;5.07;;
14472;SDS011;7322;50.872;4.386;2024-03-22T03:07:53;5.60;;;5.10;;
14472;SDS011;7322;50.872;4.386;2024-03-22T03:10:21;6.17;;;4.77;;
14472;SDS011;7322;50.872;4.386;2024-03-22T03:12:47;6.07;;;4.97;;
14472;SDS011;7322;50.872;4.386;2024-03-22T03:15:17;5.20;;;4.70;;
14472;SDS011;7322;50.872;4.386;2024-03-22T03:17:43;6.07;;;4.80;;
14472;SDS011;7322;50.872;4.386;2024-03-22T03:20:11;5.27;;;4.63;;
14472;SDS011;7322;50.872;4.386;2024-03-22T03:22:38;5.67;;;4.97;;
14472;SDS011;7322;50.872;4.386;2024-03-22T03:25:06;6.13;;;4.80;;
14472;SDS011;7322;50.872;4.386;2024-03-22T03:27:32;5.03;;;4.53;;
14472;SDS011;7322;50.872;4.386;2024-03-22T03:29:59;6.30;;;5.70;;
14472;SDS011;7322;50.872;4.386;2024-03-22T03:32:27;5.40;;;4.90;;
14472;SDS011;7322;50.872;4.386;2024-03-22T03:34:56;5.30;;;4.70;;
14472;SDS011;7322;50.872;4.386;2024-03-22T03:37:22;5.90;;;5.07;;
14472;SDS011;7322;50.872;4.386;2024-03-22T03:39:49;6.60;;;5.10;;
14472;SDS011;7322;50.872;4.386;2024-03-22T03:42:15;5.37;;;4.87;;
14472;SDS011;7322;50.872;4.386;2024-03-22T03:44:45;5.43;;;4.93;;
14472;SDS011;7322;50.872;4.386;2024-03-22T03:47:11;6.43;;;5.47;;
14472;SDS011;7322;50.872;4.386;2024-03-22T03:49:39;5.50;;;4.73;;
14472;SDS011;7322;50.872;4.386;2024-03-22T03:52:05;5.03;;;4.53;;
14472;SDS011;7322;50.872;4.386;2024-03-22T03:54:32;5.30;;;4.70;;
14472;SDS011;7322;50.872;4.386;2024-03-22T03:56:59;5.40;;;4.73;;
14472;SDS011;7322;50.872;4.386;2024-03-22T03:59:26;6.73;;;5.20;;
14472;SDS011;7322;50.872;4.386;2024-03-22T04:01:52;6.37;;;5.20;;
14472;SDS011;7322;50.872;4.386;2024-03-22T04:04:19;6.40;;;5.17;;
14472;SDS011;7322;50.872;4.386;2024-03-22T04:06:46;5.27;;;4.53;;
14472;SDS011;7322;50.872;4.386;2024-03-22T04:09:13;5.67;;;5.03;;
14472;SDS011;7322;50.872;4.386;2024-03-22T04:11:39;5.53;;;5.03;;
14472;SDS011;7322;50.872;4.386;2024-03-22T04:14:06;5.73;;;4.77;;
14472;SDS011;7322;50.872;4.386;2024-03-22T04:16:34;5.73;;;4.70;;
14472;SDS011;7322;50.872;4.386;2024-03-22T04:19:01;5.33;;;4.77;;
14472;SDS011;7322;50.872;4.386;2024-03-22T04:21:27;5.13;;;4.63;;
14472;SDS011;7322;50.872;4.386;2024-03-22T04:23:57;4.90;;;4.40;;
14472;SDS011;7322;50.872;4.386;2024-03-22T04:26:22;6.03;;;4.70;;
14472;SDS011;7322;50.872;4.386;2024-03-22T04:28:49;5.63;;;4.63;;
14472;SDS011;7322;50.872;4.386;2024-03-22T04:31:15;5.47;;;4.73;;
14472;SDS011;7322;50.872;4.386;2024-03-22T04:33:42;5.90;;;4.90;;
14472;SDS011;7322;50.872;4.386;2024-03-22T04:36:08;5.33;;;4.67;;
14472;SDS011;7322;50.872;4.386;2024-03-22T04:38:35;5.03;;;4.53;;
14472;SDS011;7322;50.872;4.386;2024-03-22T04:41:04;4.83;;;4.33;;
14472;SDS011;7322;50.872;4.386;2024-03-22T04:43:31;5.03;;;4.37;;
14472;SDS011;7322;50.872;4.386;2024-03-22T04:45:58;7.23;;;5.60;;
14472;SDS011;7322;50.872;4.386;2024-03-22T04:48:24;5.33;;;4.80;;
14472;SDS011;7322;50.872;4.386;2024-03-22T04:50:51;5.27;;;4.50;;
14472;SDS011;7322;50.872;4.386;2024-03-22T04:53:18;5.37;;;4.40;;
14472;SDS011;7322;50.872;4.386;2024-03-22T04:55:47;4.90;;;4.40;;
14472;SDS011;7322;50.872;4.386;2024-03-22T04:58:15;5.57;;;4.70;;
14472;SDS011;7322;50.872;4.386;2024-03-22T05:00:43;5.10;;;4.57;;
14472;SDS011;7322;50.872;4.386;2024-03-22T05:03:09;6.33;;;4.77;;
14472;SDS011;7322;50.872;4.386;2024-03-22T05:05:37;5.37;;;4.30;;
14472;SDS011;7322;50.872;4.386;2024-03-22T05:08:04;5.27;;;4.77;;
14472;SDS011;7322;50.872;4.386;2024-03-22T05:10:31;5.20;;;4.30;;
14472;SDS011;7322;50.872;4.386;2024-03-22T05:12:58;4.60;;;4.10;;
14472;SDS011;7322;50.872;4.386;2024-03-22T05:15:27;5.10;;;4.07;;
14472;SDS011;7322;50.872;4.386;2024-03-22T05:17:56;4.67;;;4.20;;
14472;SDS011;7322;50.872;4.386;2024-03-22T05:20:24;6.27;;;4.30;;
14472;SDS011;7322;50.872;4.386;2024-03-22T05:22:50;4.80;;;4.20;;
14472;SDS011;7322;50.872;4.386;2024-03-22T05:25:18;5.20;;;4.40;;
14472;SDS011;7322;50.872;4.386;2024-03-22T05:27:44;5.70;;;4.57;;
14472;SDS011;7322;50.872;4.386;2024-03-22T05:30:11;5.13;;;4.43;;
14472;SDS011;7322;50.872;4.386;2024-03-22T05:32:40;4.40;;;4.00;;
14472;SDS011;7322;50.872;4.386;2024-03-22T05:35:08;5.60;;;4.30;;
14472;SDS011;7322;50.872;4.386;2024-03-22T05:37:34;6.13;;;4.60;;
14472;SDS011;7322;50.872;4.386;2024-03-22T05:40:01;4.20;;;3.80;;
14472;SDS011;7322;50.872;4.386;2024-03-22T05:42:29;5.47;;;4.90;;
14472;SDS011;7322;50.872;4.386;2024-03-22T05:44:56;4.97;;;4.47;;
14472;SDS011;7322;50.872;4.386;2024-03-22T05:47:21;4.50;;;4.00;;
14472;SDS011;7322;50.872;4.386;2024-03-22T05:49:50;5.40;;;4.73;;
14472;SDS011;7322;50.872;4.386;2024-03-22T05:52:16;5.30;;;4.50;;
14472;SDS011;7322;50.872;4.386;2024-03-22T05:54:44;6.03;;;4.13;;
14472;SDS011;7322;50.872;4.386;2024-03-22T05:57:10;4.70;;;4.30;;
14472;SDS011;7322;50.872;4.386;2024-03-22T05:59:46;4.20;;;3.80;;
14472;SDS011;7322;50.872;4.386;2024-03-22T06:02:13;4.40;;;4.00;;
14472;SDS011;7322;50.872;4.386;2024-03-22T06:04:47;4.67;;;3.90;;
14472;SDS011;7322;50.872;4.386;2024-03-22T06:07:16;4.30;;;3.60;;
14472;SDS011;7322;50.872;4.386;2024-03-22T06:09:43;4.80;;;3.97;;
14472;SDS011;7322;50.872;4.386;2024-03-22T06:12:11;5.00;;;3.63;;
14472;SDS011;7322;50.872;4.386;2024-03-22T06:17:19;4.30;;;3.80;;
14472;SDS011;7322;50.872;4.386;2024-03-22T06:19:53;3.60;;;3.30;;
14472;SDS011;7322;50.872;4.386;2024-03-22T06:24:53;3.20;;;2.90;;
14472;SDS011;7322;50.872;4.386;2024-03-22T06:27:20;3.43;;;2.93;;
14472;SDS011;7322;50.872;4.386;2024-03-22T06:30:02;4.53;;;3.30;;
14472;SDS011;7322;50.872;4.386;2024-03-22T06:38:41;4.47;;;3.10;;
14472;SDS011;7322;50.872;4.386;2024-03-22T06:43:37;3.93;;;3.30;;
14472;SDS011;7322;50.872;4.386;2024-03-22T06:46:09;3.50;;;3.20;;
14472;SDS011;7322;50.872;4.386;2024-03-22T06:48:38;3.77;;;3.10;;
14472;SDS011;7322;50.872;4.386;2024-03-22T06:51:05;3.60;;;3.20;;
14472;SDS011;7322;50.872;4.386;2024-03-22T06:53:34;3.73;;;2.90;;
14472;SDS011;7322;50.872;4.386;2024-03-22T06:56:08;3.20;;;2.93;;
14472;SDS011;7322;50.872;4.386;2024-03-22T06:58:36;3.80;;;3.00;;
14472;SDS011;7322;50.872;4.386;2024-03-22T07:01:03;3.47;;;2.90;;
14472;SDS011;7322;50.872;4.386;2024-03-22T07:03:31;3.40;;;2.90;;
14472;SDS011;7322;50.872;4.386;2024-03-22T07:06:00;3.57;;;3.20;;
14472;SDS011;7322;50.872;4.386;2024-03-22T07:08:27;3.90;;;3.17;;
14472;SDS011;7322;50.872;4.386;2024-03-22T07:10:53;3.73;;;3.20;;
14472;SDS011;7322;50.872;4.386;2024-03-22T07:13:22;5.23;;;3.30;;
14472;SDS011;7322;50.872;4.386;2024-03-22T07:15:48;4.23;;;2.83;;
14472;SDS011;7322;50.872;4.386;2024-03-22T07:18:16;5.30;;;2.90;;
14472;SDS011;7322;50.872;4.386;2024-03-22T07:20:41;5.63;;;3.17;;
14472;SDS011;7322;50.872;4.386;2024-03-22T07:23:09;4.40;;;2.83;;
14472;SDS011;7322;50.872;4.386;2024-03-22T07:25:35;3.20;;;2.70;;
14472;SDS011;7322;50.872;4.386;2024-03-22T07:28:02;4.27;;;3.47;;
14472;SDS011;7322;50.872;4.386;2024-03-22T07:30:29;3.50;;;3.10;;
14472;SDS011;7322;50.872;4.386;2024-03-22T07:32:56;4.13;;;3.13;;
14472;SDS011;7322;50.872;4.386;2024-03-22T07:35:22;5.13;;;3.50;;
14472;SDS011;7322;50.872;4.386;2024-03-22T07:37:50;4.77;;;3.20;;
14472;SDS011;7322;50.872;4.386;2024-03-22T07:40:16;7.30;;;3.30;;
14472;SDS011;7322;50.872;4.386;2024-03-22T07:42:43;4.83;;;3.20;;
14472;SDS011;7322;50.872;4.386;2024-03-22T07:45:09;5.07;;;3.10;;
14472;SDS011;7322;50.872;4.386;2024-03-22T07:47:37;4.23;;;2.80;;
14472;SDS011;7322;50.872;4.386;2024-03-22T07:50:03;4.90;;;3.20;;
14472;SDS011;7322;50.872;4.386;2024-03-22T07:52:31;4.77;;;3.40;;
14472;SDS011;7322;50.872;4.386;2024-03-22T07:54:58;5.80;;;3.20;;
14472;SDS011;7322;50.872;4.386;2024-03-22T07:57:27;5.47;;;3.70;;
14472;SDS011;7322;50.872;4.386;2024-03-22T07:59:55;4.60;;;3.37;;
14472;SDS011;7322;50.872;4.386;2024-03-22T08:02:22;5.83;;;3.60;;
14472;SDS011;7322;50.872;4.386;2024-03-22T08:04:50;5.10;;;2.77;;
14472;SDS011;7322;50.872;4.386;2024-03-22T08:07:17;5.27;;;3.20;;
14472;SDS011;7322;50.872;4.386;2024-03-22T08:09:43;5.60;;;3.30;;
14472;SDS011;7322;50.872;4.386;2024-03-22T08:12:10;6.70;;;3.30;;
14472;SDS011;7322;50.872;4.386;2024-03-22T08:14:36;6.83;;;3.73;;
14472;SDS011;7322;50.872;4.386;2024-03-22T08:17:04;4.57;;;3.33;;
14472;SDS011;7322;50.872;4.386;2024-03-22T08:19:32;8.40;;;3.37;;
14472;SDS011;7322;50.872;4.386;2024-03-22T08:22:01;6.63;;;3.87;;
14472;SDS011;7322;50.872;4.386;2024-03-22T08:24:27;6.27;;;3.20;;
14472;SDS011;7322;50.872;4.386;2024-03-22T08:26:54;7.87;;;3.33;;
14472;SDS011;7322;50.872;4.386;2024-03-22T08:29:20;5.37;;;3.47;;
14472;SDS011;7322;50.872;4.386;2024-03-22T08:31:47;4.70;;;3.30;;
14472;SDS011;7322;50.872;4.386;2024-03-22T08:34:13;6.00;;;3.57;;
14472;SDS011;7322;50.872;4.386;2024-03-22T08:36:40;4.83;;;3.43;;
14472;SDS011;7322;50.872;4.386;2024-03-22T08:39:08;5.97;;;4.07;;
14472;SDS011;7322;50.872;4.386;2024-03-22T08:41:35;4.60;;;3.17;;
14472;SDS011;7322;50.872;4.386;2024-03-22T08:44:01;6.83;;;3.63;;
14472;SDS011;7322;50.872;4.386;2024-03-22T08:46:28;4.60;;;3.30;;
14472;SDS011;7322;50.872;4.386;2024-03-22T08:48:54;4.80;;;3.87;;
14472;SDS011;7322;50.872;4.386;2024-03-22T08:51:21;5.17;;;3.10;;
14472;SDS011;7322;50.872;4.386;2024-03-22T08:53:48;5.73;;;3.47;;
14472;SDS011;7322;50.872;4.386;2024-03-22T08:56:17;5.20;;;4.23;;
14472;SDS011;7322;50.872;4.386;2024-03-22T08:58:43;5.63;;;3.70;;
14472;SDS011;7322;50.872;4.386;2024-03-22T09:01:10;5.13;;;4.17;;
14472;SDS011;7322;50.872;4.386;2024-03-22T09:03:36;4.90;;;3.83;;
14472;SDS011;7322;50.872;4.386;2024-03-22T09:06:04;6.63;;;3.80;;
14472;SDS011;7322;50.872;4.386;2024-03-22T09:08:30;6.53;;;3.97;;
14472;SDS011;7322;50.872;4.386;2024-03-22T09:10:59;4.60;;;3.40;;
14472;SDS011;7322;50.872;4.386;2024-03-22T09:13:26;4.00;;;3.23;;
14472;SDS011;7322;50.872;4.386;2024-03-22T09:15:56;4.70;;;3.47;;
14472;SDS011;7322;50.872;4.386;2024-03-22T09:18:22;5.40;;;3.60;;
14472;SDS011;7322;50.872;4.386;2024-03-22T09:20:49;6.03;;;4.67;;
14472;SDS011;7322;50.872;4.386;2024-03-22T09:23:15;7.03;;;3.80;;
14472;SDS011;7322;50.872;4.386;2024-03-22T09:25:42;5.43;;;3.40;;
14472;SDS011;7322;50.872;4.386;2024-03-22T09:28:08;7.30;;;3.60;;
14472;SDS011;7322;50.872;4.386;2024-03-22T09:30:39;6.87;;;3.83;;
14472;SDS011;7322;50.872;4.386;2024-03-22T09:33:05;5.70;;;3.90;;
14472;SDS011;7322;50.872;4.386;2024-03-22T09:35:33;6.17;;;3.50;;
14472;SDS011;7322;50.872;4.386;2024-03-22T09:37:59;5.33;;;3.27;;
14472;SDS011;7322;50.872;4.386;2024-03-22T09:40:26;6.23;;;3.63;;
14472;SDS011;7322;50.872;4.386;2024-03-22T09:42:52;4.50;;;3.50;;
14472;SDS011;7322;50.872;4.386;2024-03-22T09:45:21;5.07;;;3.70;;
14472;SDS011;7322;50.872;4.386;2024-03-22T09:47:48;5.13;;;3.83;;
14472;SDS011;7322;50.872;4.386;2024-03-22T09:50:20;4.60;;;3.70;;
14472;SDS011;7322;50.872;4.386;2024-03-22T09:52:47;6.60;;;4.37;;
14472;SDS011;7322;50.872;4.386;2024-03-22T09:55:14;5.40;;;4.37;;
14472;SDS011;7322;50.872;4.386;2024-03-22T09:57:41;6.67;;;3.73;;
14472;SDS011;7322;50.872;4.386;2024-03-22T10:00:12;4.37;;;3.20;;
14472;SDS011;7322;50.872;4.386;2024-03-22T10:02:39;8.13;;;5.07;;
14472;SDS011;7322;50.872;4.386;2024-03-22T10:05:09;5.03;;;3.13;;
14472;SDS011;7322;50.872;4.386;2024-03-22T10:07:34;4.93;;;3.40;;
14472;SDS011;7322;50.872;4.386;2024-03-22T10:10:02;6.30;;;3.83;;
14472;SDS011;7322;50.872;4.386;2024-03-22T10:12:28;6.90;;;4.17;;
14472;SDS011;7322;50.872;4.386;2024-03-22T10:14:55;6.33;;;3.93;;
14472;SDS011;7322;50.872;4.386;2024-03-22T10:17:21;6.30;;;3.87;;
14472;SDS011;7322;50.872;4.386;2024-03-22T10:19:48;4.97;;;4.03;;
14472;SDS011;7322;50.872;4.386;2024-03-22T10:22:17;3.93;;;3.33;;
14472;SDS011;7322;50.872;4.386;2024-03-22T10:24:45;3.90;;;3.33;;
14472;SDS011;7322;50.872;4.386;2024-03-22T10:27:11;4.13;;;3.33;;
14472;SDS011;7322;50.872;4.386;2024-03-22T10:29:38;5.90;;;3.77;;
14472;SDS011;7322;50.872;4.386;2024-03-22T10:32:04;5.43;;;3.70;;
14472;SDS011;7322;50.872;4.386;2024-03-22T10:34:32;5.93;;;4.90;;
14472;SDS011;7322;50.872;4.386;2024-03-22T10:37:00;4.13;;;3.73;;
14472;SDS011;7322;50.872;4.386;2024-03-22T10:39:29;5.37;;;4.00;;
14472;SDS011;7322;50.872;4.386;2024-03-22T10:41:56;3.90;;;3.50;;
14472;SDS011;7322;50.872;4.386;2024-03-22T10:44:23;6.53;;;4.07;;
14472;SDS011;7322;50.872;4.386;2024-03-22T10:46:49;4.70;;;4.20;;
14472;SDS011;7322;50.872;4.386;2024-03-22T10:49:22;5.50;;;4.03;;
14472;SDS011;7322;50.872;4.386;2024-03-22T10:51:51;5.57;;;3.83;;
14472;SDS011;7322;50.872;4.386;2024-03-22T10:54:21;4.87;;;3.53;;
14472;SDS011;7322;50.872;4.386;2024-03-22T10:56:52;6.83;;;3.90;;
14472;SDS011;7322;50.872;4.386;2024-03-22T10:59:21;5.50;;;4.00;;
14472;SDS011;7322;50.872;4.386;2024-03-22T11:01:48;5.73;;;3.80;;
14472;SDS011;7322;50.872;4.386;2024-03-22T11:04:15;5.13;;;4.13;;
14472;SDS011;7322;50.872;4.386;2024-03-22T11:06:46;4.30;;;3.90;;
14472;SDS011;7322;50.872;4.386;2024-03-22T11:09:18;4.30;;;3.83;;
14472;SDS011;7322;50.872;4.386;2024-03-22T11:11:48;4.20;;;3.77;;
14472;SDS011;7322;50.872;4.386;2024-03-22T11:14:15;5.37;;;4.50;;
14472;SDS011;7322;50.872;4.386;2024-03-22T11:16:42;4.97;;;4.30;;
14472;SDS011;7322;50.872;4.386;2024-03-22T11:19:09;5.10;;;4.27;;
14472;SDS011;7322;50.872;4.386;2024-03-22T11:21:37;4.37;;;3.60;;
14472;SDS011;7322;50.872;4.386;2024-03-22T11:24:04;6.40;;;3.73;;
14472;SDS011;7322;50.872;4.386;2024-03-22T11:26:31;4.83;;;3.60;;
14472;SDS011;7322;50.872;4.386;2024-03-22T11:28:58;4.63;;;3.63;;
14472;SDS011;7322;50.872;4.386;2024-03-22T11:31:26;4.33;;;3.73;;
14472;SDS011;7322;50.872;4.386;2024-03-22T11:33:52;5.40;;;3.70;;
14472;SDS011;7322;50.872;4.386;2024-03-22T11:36:19;4.90;;;3.87;;
14472;SDS011;7322;50.872;4.386;2024-03-22T11:38:46;5.73;;;3.70;;
14472;SDS011;7322;50.872;4.386;2024-03-22T11:41:14;4.80;;;3.43;;
14472;SDS011;7322;50.872;4.386;2024-03-22T11:43:42;5.57;;;4.33;;
14472;SDS011;7322;50.872;4.386;2024-03-22T11:46:15;5.17;;;3.70;;
14472;SDS011;7322;50.872;4.386;2024-03-22T11:48:52;5.43;;;3.90;;
14472;SDS011;7322;50.872;4.386;2024-03-22T11:51:19;3.73;;;3.40;;
14472;SDS011;7322;50.872;4.386;2024-03-22T11:54:05;4.73;;;3.63;;
14472;SDS011;7322;50.872;4.386;2024-03-22T11:56:35;5.87;;;3.80;;
14472;SDS011;7322;50.872;4.386;2024-03-22T11:59:12;4.93;;;3.67;;
14472;SDS011;7322;50.872;4.386;2024-03-22T12:01:49;5.83;;;4.10;;
14472;SDS011;7322;50.872;4.386;2024-03-22T12:04:17;3.97;;;3.57;;
14472;SDS011;7322;50.872;4.386;2024-03-22T12:06:45;4.17;;;3.63;;
14472;SDS011;7322;50.872;4.386;2024-03-22T12:09:12;4.03;;;3.40;;
14472;SDS011;7322;50.872;4.386;2024-03-22T12:11:40;6.50;;;3.80;;
14472;SDS011;7322;50.872;4.386;2024-03-22T12:14:07;5.30;;;3.90;;
14472;SDS011;7322;50.872;4.386;2024-03-22T12:16:34;3.73;;;3.23;;
14472;SDS011;7322;50.872;4.386;2024-03-22T12:19:06;4.47;;;3.33;;
14472;SDS011;7322;50.872;4.386;2024-03-22T12:21:37;5.83;;;3.97;;
14472;SDS011;7322;50.872;4.386;2024-03-22T12:24:10;4.27;;;3.50;;
14472;SDS011;7322;50.872;4.386;2024-03-22T12:29:16;3.63;;;3.27;;
14472;SDS011;7322;50.872;4.386;2024-03-22T12:31:43;4.20;;;2.93;;
14472;SDS011;7322;50.872;4.386;2024-03-22T12:34:11;4.30;;;3.23;;
14472;SDS011;7322;50.872;4.386;2024-03-22T12:36:39;3.53;;;3.07;;
14472;SDS011;7322;50.872;4.386;2024-03-22T12:39:06;5.43;;;3.50;;
14472;SDS011;7322;50.872;4.386;2024-03-22T12:41:33;4.87;;;4.10;;
14472;SDS011;7322;50.872;4.386;2024-03-22T12:44:01;6.87;;;3.73;;
14472;SDS011;7322;50.872;4.386;2024-03-22T12:46:27;4.17;;;3.20;;
14472;SDS011;7322;50.872;4.386;2024-03-22T12:48:54;4.50;;;3.60;;
14472;SDS011;7322;50.872;4.386;2024-03-22T12:51:20;3.70;;;3.30;;
14472;SDS011;7322;50.872;4.386;2024-03-22T12:53:50;3.87;;;3.10;;
14472;SDS011;7322;50.872;4.386;2024-03-22T12:56:17;3.67;;;3.37;;
14472;SDS011;7322;50.872;4.386;2024-03-22T12:58:43;5.27;;;3.50;;
14472;SDS011;7322;50.872;4.386;2024-03-22T13:01:10;4.17;;;3.23;;
14472;SDS011;7322;50.872;4.386;2024-03-22T13:03:36;5.20;;;3.63;;
14472;SDS011;7322;50.872;4.386;2024-03-22T13:06:03;3.60;;;3.20;;
14472;SDS011;7322;50.872;4.386;2024-03-22T13:08:30;3.97;;;3.13;;
14472;SDS011;7322;50.872;4.386;2024-03-22T13:10:59;4.60;;;3.37;;
14472;SDS011;7322;50.872;4.386;2024-03-22T13:13:24;3.70;;;3.10;;
14472;SDS011;7322;50.872;4.386;2024-03-22T13:15:51;4.53;;;3.20;;
14472;SDS011;7322;50.872;4.386;2024-03-22T13:18:17;5.10;;;3.27;;
14472;SDS011;7322;50.872;4.386;2024-03-22T13:20:46;3.33;;;3.03;;
14472;SDS011;7322;50.872;4.386;2024-03-22T13:23:12;3.57;;;2.83;;
14472;SDS011;7322;50.872;4.386;2024-03-22T13:25:39;4.43;;;3.23;;
14472;SDS011;7322;50.872;4.386;2024-03-22T13:28:06;4.43;;;3.20;;
14472;SDS011;7322;50.872;4.386;2024-03-22T13:30:35;3.77;;;2.90;;
14472;SDS011;7322;50.872;4.386;2024-03-22T13:33:02;3.20;;;2.83;;
14472;SDS011;7322;50.872;4.386;2024-03-22T13:35:30;3.87;;;3.20;;
14472;SDS011;7322;50.872;4.386;2024-03-22T13:37:55;5.03;;;3.63;;
14472;SDS011;7322;50.872;4.386;2024-03-22T13:40:23;4.10;;;3.37;;
14472;SDS011;7322;50.872;4.386;2024-03-22T13:42:52;2.70;;;2.50;;
14472;SDS011;7322;50.872;4.386;2024-03-22T13:45:21;3.33;;;3.03;;
14472;SDS011;7322;50.872;4.386;2024-03-22T13:47:47;3.30;;;3.00;;
14472;SDS011;7322;50.872;4.386;2024-03-22T13:50:14;3.33;;;3.03;;
14472;SDS011;7322;50.872;4.386;2024-03-22T13:52:39;4.47;;;3.43;;
14472;SDS011;7322;50.872;4.386;2024-03-22T13:55:07;4.40;;;3.23;;
14472;SDS011;7322;50.872;4.386;2024-03-22T13:57:33;4.27;;;3.20;;
14472;SDS011;7322;50.872;4.386;2024-03-22T14:00:00;3.67;;;2.73;;
14472;SDS011;7322;50.872;4.386;2024-03-22T14:02:33;4.63;;;3.23;;
14472;SDS011;7322;50.872;4.386;2024-03-22T14:05:00;3.73;;;3.00;;
14472;SDS011;7322;50.872;4.386;2024-03-22T14:07:28;3.67;;;3.00;;
14472;SDS011;7322;50.872;4.386;2024-03-22T14:09:55;3.73;;;2.83;;
14472;SDS011;7322;50.872;4.386;2024-03-22T14:12:21;3.63;;;3.00;;
14472;SDS011;7322;50.872;4.386;2024-03-22T14:14:48;4.57;;;3.17;;
14472;SDS011;7322;50.872;4.386;2024-03-22T14:17:14;5.87;;;3.07;;
14472;SDS011;7322;50.872;4.386;2024-03-22T14:19:43;4.47;;;2.97;;
14472;SDS011;7322;50.872;4.386;2024-03-22T14:22:10;4.10;;;2.90;;
14472;SDS011;7322;50.872;4.386;2024-03-22T14:24:37;5.93;;;3.53;;
14472;SDS011;7322;50.872;4.386;2024-03-22T14:27:04;2.80;;;2.60;;
14472;SDS011;7322;50.872;4.386;2024-03-22T14:29:31;3.43;;;3.00;;
14472;SDS011;7322;50.872;4.386;2024-03-22T14:31:57;3.80;;;2.90;;
14472;SDS011;7322;50.872;4.386;2024-03-22T14:34:25;4.73;;;3.10;;
14472;SDS011;7322;50.872;4.386;2024-03-22T14:36:52;3.10;;;2.80;;
14472;SDS011;7322;50.872;4.386;2024-03-22T14:39:19;5.67;;;3.50;;
14472;SDS011;7322;50.872;4.386;2024-03-22T14:41:45;3.43;;;2.80;;
14472;SDS011;7322;50.872;4.386;2024-03-22T14:44:13;4.07;;;3.00;;
14472;SDS011;7322;50.872;4.386;2024-03-22T14:46:39;3.90;;;3.07;;
14472;SDS011;7322;50.872;4.386;2024-03-22T14:49:06;4.07;;;2.77;;
14472;SDS011;7322;50.872;4.386;2024-03-22T14:51:32;3.07;;;2.50;;
14472;SDS011;7322;50.872;4.386;2024-03-22T14:54:05;3.93;;;3.00;;
14472;SDS011;7322;50.872;4.386;2024-03-22T14:56:31;4.70;;;2.70;;
14472;SDS011;7322;50.872;4.386;2024-03-22T14:58:58;3.47;;;2.63;;
14472;SDS011;7322;50.872;4.386;2024-03-22T15:01:26;3.03;;;2.53;;
14472;SDS011;7322;50.872;4.386;2024-03-22T15:03:53;3.80;;;2.73;;
14472;SDS011;7322;50.872;4.386;2024-03-22T15:06:20;3.30;;;3.00;;
14472;SDS011;7322;50.872;4.386;2024-03-22T15:08:47;3.57;;;2.43;;
14472;SDS011;7322;50.872;4.386;2024-03-22T15:11:14;2.83;;;2.53;;
14472;SDS011;7322;50.872;4.386;2024-03-22T15:13:41;2.77;;;2.57;;
14472;SDS011;7322;50.872;4.386;2024-03-22T15:16:07;4.00;;;2.87;;
14472;SDS011;7322;50.872;4.386;2024-03-22T15:18:34;3.90;;;2.77;;